Time;durP1;ratioP1;P1;durP2;ratioP2;P2;SDS_P1;SDS_P2;PMS_P1;PMS_P2;Temp;Humidity;BMP_temperature;BMP_pressure;BME280_temperature;BME280_humidity;BME280_pressure;Samples;Min_cycle;Max_cycle;Signal;HPM_P1;HPM_P2
2021/09/03 00:00:09;;;;;;;22.27;12.32;;;;;;;10.59;100.00;102328.41;4973389;28;20066;-80
2021/09/03 00:02:36;;;;;;;23.58;13.02;;;;;;;10.58;100.00;102322.28;4954598;28;20034;-79
2021/09/03 00:05:04;;;;;;;23.92;13.35;;;;;;;10.62;100.00;102331.63;4991301;28;20042;-79
2021/09/03 00:07:30;;;;;;;20.60;11.77;;;;;;;10.62;100.00;102320.28;4938508;28;20102;-80
2021/09/03 00:09:55;;;;;;;20.45;11.15;;;;;;;10.64;100.00;102323.66;4974356;28;20056;-78
2021/09/03 00:12:36;;;;;;;19.40;11.30;;;;;;;10.60;100.00;102320.41;4956868;28;20084;-77
2021/09/03 00:15:05;;;;;;;17.77;11.48;;;;;;;10.48;100.00;102309.00;4991223;28;20112;-79
2021/09/03 00:17:31;;;;;;;22.30;12.68;;;;;;;10.57;100.00;102325.88;4972337;28;20046;-79
2021/09/03 00:19:56;;;;;;;17.15;11.57;;;;;;;10.56;100.00;102316.31;4955954;28;20492;-79
2021/09/03 00:22:22;;;;;;;27.63;12.82;;;;;;;10.57;100.00;102322.41;4958475;28;20041;-81
2021/09/03 00:24:47;;;;;;;21.10;12.27;;;;;;;10.53;100.00;102313.94;4962401;28;20062;-80
2021/09/03 00:27:13;;;;;;;22.80;13.25;;;;;;;10.50;100.00;102308.88;4965901;28;20034;-78
2021/09/03 00:29:38;;;;;;;25.60;12.95;;;;;;;10.45;100.00;102310.97;4954463;28;20042;-81
2021/09/03 00:32:04;;;;;;;19.98;12.60;;;;;;;10.44;100.00;102301.47;4950710;28;20098;-80
2021/09/03 00:34:29;;;;;;;21.63;12.63;;;;;;;10.42;100.00;102303.34;4957414;28;20038;-80
2021/09/03 00:36:55;;;;;;;25.10;12.85;;;;;;;10.41;100.00;102305.13;4956700;28;20760;-81
2021/09/03 00:39:20;;;;;;;23.33;12.57;;;;;;;10.36;100.00;102294.13;4983047;28;20038;-80
2021/09/03 00:41:46;;;;;;;21.00;11.65;;;;;;;10.33;100.00;102289.91;4956824;28;20038;-77
2021/09/03 00:44:12;;;;;;;21.08;12.77;;;;;;;10.38;100.00;102288.75;4973322;28;20038;-80
2021/09/03 00:46:38;;;;;;;23.63;12.13;;;;;;;10.37;100.00;102293.16;4966650;28;20042;-78
2021/09/03 00:49:03;;;;;;;26.05;12.85;;;;;;;10.27;100.00;102276.38;4972060;28;20037;-81
2021/09/03 00:51:29;;;;;;;23.60;12.85;;;;;;;10.26;100.00;102277.31;4955905;28;20030;-79
2021/09/03 00:53:56;;;;;;;25.58;13.27;;;;;;;10.27;100.00;102285.06;4968250;28;20053;-79
2021/09/03 00:56:22;;;;;;;23.85;13.05;;;;;;;10.29;100.00;102275.31;4955995;28;20039;-79
2021/09/03 00:58:47;;;;;;;21.10;12.02;;;;;;;10.29;100.00;102282.34;4973101;28;20034;-78
2021/09/03 01:01:13;;;;;;;24.05;12.77;;;;;;;10.23;100.00;102280.16;4951750;28;20035;-78
2021/09/03 01:03:39;;;;;;;25.85;12.85;;;;;;;10.22;100.00;102278.47;4964190;28;20042;-79
2021/09/03 01:06:05;;;;;;;21.80;11.88;;;;;;;10.23;100.00;102282.78;4955322;28;20042;-78
2021/09/03 01:08:34;;;;;;;22.33;12.88;;;;;;;10.13;100.00;102265.06;4964291;28;20070;-78
2021/09/03 01:10:59;;;;;;;19.08;11.23;;;;;;;10.21;100.00;102276.78;4966278;28;20047;-78
2021/09/03 01:13:26;;;;;;;22.65;13.02;;;;;;;10.23;100.00;102278.38;4956511;28;20038;-79
2021/09/03 01:15:51;;;;;;;20.00;12.52;;;;;;;10.19;100.00;102270.81;4941065;28;20054;-78
2021/09/03 01:18:17;;;;;;;21.25;12.27;;;;;;;10.16;100.00;102271.03;4965302;28;20100;-79
2021/09/03 01:20:43;;;;;;;19.40;12.10;;;;;;;10.06;100.00;102252.47;4959448;28;20034;-79
2021/09/03 01:23:08;;;;;;;18.25;12.00;;;;;;;10.10;100.00;102257.41;4970493;28;20026;-77
2021/09/03 01:25:34;;;;;;;22.00;12.23;;;;;;;10.06;100.00;102255.09;4957216;28;20039;-80
2021/09/03 01:28:00;;;;;;;25.67;12.80;;;;;;;10.06;100.00;102252.47;4989548;28;20507;-80
2021/09/03 01:30:26;;;;;;;18.50;11.63;;;;;;;10.00;100.00;102234.53;4959044;28;20038;-79
2021/09/03 01:32:51;;;;;;;22.15;11.63;;;;;;;10.03;100.00;102244.81;4949489;28;20041;-79
2021/09/03 01:35:17;;;;;;;22.48;12.02;;;;;;;10.00;100.00;102242.41;4968460;28;20248;-80
2021/09/03 01:37:42;;;;;;;21.85;11.50;;;;;;;9.96;100.00;102241.78;4986496;28;20053;-78
2021/09/03 01:40:08;;;;;;;21.35;12.48;;;;;;;9.96;100.00;102246.19;4982823;28;20559;-78
2021/09/03 01:42:35;;;;;;;26.50;12.05;;;;;;;9.94;100.00;102244.53;4963310;28;20044;-82
2021/09/03 01:45:00;;;;;;;22.85;12.40;;;;;;;9.90;100.00;102239.56;4972061;28;20034;-79
2021/09/03 01:47:26;;;;;;;21.33;11.98;;;;;;;9.88;100.00;102244.09;4971167;28;21104;-78
2021/09/03 01:49:51;;;;;;;22.48;12.50;;;;;;;9.90;100.00;102243.03;4970838;28;20467;-79
2021/09/03 01:52:17;;;;;;;20.65;12.30;;;;;;;9.83;100.00;102235.69;4962931;28;20554;-79
2021/09/03 01:54:42;;;;;;;21.88;11.63;;;;;;;9.81;100.00;102230.56;4985038;28;20030;-79
2021/09/03 01:57:08;;;;;;;18.60;11.07;;;;;;;9.86;100.00;102240.75;4952978;28;20042;-80
2021/09/03 01:59:33;;;;;;;18.77;11.60;;;;;;;9.81;100.00;102229.72;4958850;28;20038;-80
2021/09/03 02:02:00;;;;;;;19.17;11.65;;;;;;;9.75;100.00;102231.81;4956308;28;20129;-81
2021/09/03 02:04:25;;;;;;;20.85;11.55;;;;;;;9.78;100.00;102236.03;4972711;28;20094;-79
2021/09/03 02:06:51;;;;;;;21.55;10.82;;;;;;;9.80;100.00;102230.69;4969262;28;20042;-79
2021/09/03 02:09:16;;;;;;;20.23;11.32;;;;;;;9.70;100.00;102217.34;4968713;28;20043;-81
2021/09/03 02:11:42;;;;;;;23.38;10.93;;;;;;;9.76;100.00;102219.56;4987331;28;20109;-78
2021/09/03 02:14:07;;;;;;;20.17;11.45;;;;;;;9.74;100.00;102224.09;4964925;28;20037;-79
2021/09/03 02:16:33;;;;;;;18.77;10.82;;;;;;;9.72;100.00;102224.19;4970646;28;20546;-80
2021/09/03 02:18:58;;;;;;;21.65;10.75;;;;;;;9.69;100.00;102218.31;4939432;28;20042;-80
2021/09/03 02:21:24;;;;;;;21.77;10.85;;;;;;;9.67;100.00;102218.41;4974838;28;20598;-79
2021/09/03 02:23:50;;;;;;;18.55;10.70;;;;;;;9.62;100.00;102209.19;4954804;28;20034;-78
2021/09/03 02:26:15;;;;;;;23.35;11.02;;;;;;;9.60;100.00;102214.53;4981034;28;20035;-78
2021/09/03 02:28:41;;;;;;;20.25;10.80;;;;;;;9.62;100.00;102217.88;4969418;28;20046;-78
2021/09/03 02:31:07;;;;;;;21.40;10.73;;;;;;;9.54;100.00;102202.69;4976841;28;20384;-78
2021/09/03 02:33:32;;;;;;;16.73;10.80;;;;;;;9.59;100.00;102205.00;4961793;28;20027;-78
2021/09/03 02:35:58;;;;;;;21.63;10.65;;;;;;;9.53;100.00;102201.03;4961239;28;20034;-78
2021/09/03 02:38:23;;;;;;;17.10;10.38;;;;;;;9.58;100.00;102205.09;4979493;28;20396;-78
2021/09/03 02:40:49;;;;;;;15.75;9.82;;;;;;;9.55;100.00;102203.53;4994114;28;20228;-79
2021/09/03 02:43:14;;;;;;;15.63;10.13;;;;;;;9.50;100.00;102198.59;4982070;28;20062;-78
2021/09/03 02:45:40;;;;;;;17.63;10.20;;;;;;;9.51;100.00;102199.44;4960791;28;20073;-79
2021/09/03 02:48:06;;;;;;;16.88;9.73;;;;;;;9.48;100.00;102189.19;4944051;28;20045;-79
2021/09/03 02:50:32;;;;;;;17.48;10.25;;;;;;;9.44;100.00;102185.91;4960941;28;20073;-79
2021/09/03 02:52:58;;;;;;;17.77;10.35;;;;;;;9.45;100.00;102184.97;4972037;28;20033;-79
2021/09/03 02:55:28;;;;;;;18.98;10.40;;;;;;;9.46;100.00;102199.75;4985084;28;20436;-80
2021/09/03 02:57:55;;;;;;;22.65;10.70;;;;;;;9.45;100.00;102184.97;4971938;28;20396;-80
2021/09/03 03:00:21;;;;;;;16.88;10.18;;;;;;;9.43;100.00;102184.22;4977994;28;20026;-77
2021/09/03 03:02:46;;;;;;;19.55;10.98;;;;;;;9.38;100.00;102173.25;4977761;28;20093;-79
2021/09/03 03:05:12;;;;;;;16.55;9.07;;;;;;;9.44;100.00;102187.72;4976586;28;20546;-79
2021/09/03 03:07:38;;;;;;;17.52;9.50;;;;;;;9.41;100.00;102187.91;4960099;28;20034;-79
2021/09/03 03:10:05;;;;;;;14.52;8.90;;;;;;;9.44;100.00;102177.25;4990615;28;20026;-79
2021/09/03 03:12:31;;;;;;;14.77;9.38;;;;;;;9.44;100.00;102175.44;4959870;28;20038;-78
2021/09/03 03:14:56;;;;;;;14.63;9.70;;;;;;;9.52;100.00;102174.91;4972882;28;20026;-77
2021/09/03 03:17:21;;;;;;;18.92;9.93;;;;;;;9.60;100.00;102177.84;4989905;28;20110;-80
2021/09/03 03:19:47;;;;;;;15.50;9.65;;;;;;;9.64;100.00;102175.84;4968778;28;20066;-80
2021/09/03 03:22:13;;;;;;;16.17;9.52;;;;;;;9.73;100.00;102177.84;4940794;28;20054;-78
2021/09/03 03:24:39;;;;;;;21.00;10.57;;;;;;;9.85;100.00;102178.78;4966839;28;20459;-78
2021/09/03 03:27:04;;;;;;;15.70;10.13;;;;;;;9.91;100.00;102181.00;5002893;28;20034;-79
2021/09/03 03:29:30;;;;;;;17.15;10.63;;;;;;;9.98;100.00;102170.91;4959142;28;20078;-78
2021/09/03 03:31:55;;;;;;;18.77;11.05;;;;;;;10.00;100.00;102169.88;4975629;28;20030;-78
2021/09/03 03:34:21;;;;;;;17.65;10.50;;;;;;;10.07;100.00;102165.84;4976932;28;20072;-79
2021/09/03 03:36:46;;;;;;;19.70;10.63;;;;;;;10.16;100.00;102169.59;4972830;28;20396;-80
2021/09/03 03:39:12;;;;;;;19.50;11.27;;;;;;;10.22;100.00;102168.34;4947482;28;20041;-78
2021/09/03 03:41:38;;;;;;;20.73;10.40;;;;;;;10.31;100.00;102176.41;5002329;28;20053;-82
2021/09/03 03:44:04;;;;;;;20.73;11.13;;;;;;;10.40;100.00;102171.47;4961831;28;20057;-79
2021/09/03 03:46:30;;;;;;;22.05;11.38;;;;;;;10.50;100.00;102169.84;4956788;28;20144;-77
2021/09/03 03:48:55;;;;;;;20.52;11.27;;;;;;;10.55;100.00;102154.63;4957299;28;20034;-80
2021/09/03 03:51:21;;;;;;;20.00;10.30;;;;;;;10.62;100.00;102160.22;4979982;28;20049;-79
2021/09/03 03:53:47;;;;;;;21.25;10.60;;;;;;;10.67;100.00;102153.69;4976548;28;20400;-78
2021/09/03 03:56:12;;;;;;;18.90;10.52;;;;;;;10.70;100.00;102152.66;4979090;28;20026;-78
2021/09/03 03:58:38;;;;;;;28.90;12.63;;;;;;;10.74;100.00;102134.88;4963260;28;20037;-80
2021/09/03 04:01:03;;;;;;;31.55;13.02;;;;;;;10.83;100.00;102142.94;4991101;28;20045;-78
2021/09/03 04:03:29;;;;;;;19.45;11.75;;;;;;;10.87;100.00;102131.25;4958904;28;20038;-78
2021/09/03 04:05:54;;;;;;;24.70;13.10;;;;;;;10.91;100.00;102131.84;4975030;28;20031;-79
2021/09/03 04:08:20;;;;;;;31.27;13.27;;;;;;;10.94;100.00;102123.72;4964214;28;20551;-77
2021/09/03 04:10:45;;;;;;;33.17;13.23;;;;;;;10.98;100.00;102125.19;4964943;28;20081;-79
2021/09/03 04:13:12;;;;;;;33.30;13.15;;;;;;;11.03;100.00;102124.84;4991948;28;20038;-78
2021/09/03 04:15:37;;;;;;;24.00;12.30;;;;;;;11.04;100.00;102134.41;4961652;28;20050;-79
2021/09/03 04:18:03;;;;;;;23.08;12.50;;;;;;;11.07;100.00;102129.72;4942037;28;20124;-79
2021/09/03 04:20:28;;;;;;;24.27;12.15;;;;;;;11.07;100.00;102121.03;4951205;28;20034;-79
2021/09/03 04:22:54;;;;;;;27.90;12.85;;;;;;;11.11;100.00;102125.09;4941424;28;20037;-80
2021/09/03 04:25:19;;;;;;;23.20;11.75;;;;;;;11.10;100.00;102121.63;4954720;28;20508;-80
2021/09/03 04:27:45;;;;;;;22.75;11.90;;;;;;;11.09;100.00;102113.84;4962741;28;20026;-81
2021/09/03 04:30:11;;;;;;;31.05;14.00;;;;;;;11.07;100.00;102113.97;4940402;28;20623;-79
2021/09/03 04:32:38;;;;;;;24.52;12.68;;;;;;;11.10;100.00;102112.91;4942161;28;20038;-80
2021/09/03 04:35:04;;;;;;;25.08;13.38;;;;;;;11.14;100.00;102118.78;4981796;28;20060;-79
2021/09/03 04:37:30;;;;;;;33.15;14.02;;;;;;;11.16;100.00;102109.81;4942675;28;20038;-80
2021/09/03 04:39:55;;;;;;;34.92;14.52;;;;;;;11.18;100.00;102113.16;4958713;28;20089;-78
2021/09/03 04:42:21;;;;;;;29.00;14.27;;;;;;;11.26;100.00;102117.81;4974059;28;20428;-79
2021/09/03 04:44:46;;;;;;;30.35;14.73;;;;;;;11.24;100.00;102111.84;4956627;28;20085;-78
2021/09/03 04:47:12;;;;;;;30.60;13.90;;;;;;;11.34;100.00;102122.50;4970675;28;20121;-81
2021/09/03 04:49:37;;;;;;;29.15;14.70;;;;;;;11.31;100.00;102102.56;4991875;28;20037;-78
2021/09/03 04:52:03;;;;;;;28.30;14.02;;;;;;;11.39;100.00;102110.69;4958088;28;20125;-78
2021/09/03 04:54:29;;;;;;;29.67;14.27;;;;;;;11.39;100.00;102113.31;4966574;28;20038;-78
2021/09/03 04:56:54;;;;;;;32.22;15.82;;;;;;;11.45;100.00;102110.22;4954820;28;20030;-81
2021/09/03 04:59:20;;;;;;;34.97;15.65;;;;;;;11.50;100.00;102115.09;4974540;28;20030;-81
2021/09/03 05:01:45;;;;;;;32.65;15.73;;;;;;;11.58;100.00;102114.50;4970223;28;20030;-80
2021/09/03 05:04:27;;;;;;;31.60;16.05;;;;;;;11.58;100.00;102104.81;4976863;28;20035;-80
2021/09/03 05:06:52;;;;;;;31.02;15.80;;;;;;;11.63;100.00;102105.31;4989414;28;20049;-80
2021/09/03 05:09:18;;;;;;;25.77;14.43;;;;;;;11.65;100.00;102108.66;4950241;28;20122;-78
2021/09/03 05:11:43;;;;;;;27.50;14.48;;;;;;;11.73;100.00;102102.78;4964042;28;20042;-78
2021/09/03 05:14:09;;;;;;;34.70;15.48;;;;;;;11.71;100.00;102096.81;4991620;28;20030;-79
2021/09/03 05:16:34;;;;;;;34.42;15.80;;;;;;;11.77;100.00;102098.13;4957295;28;20034;-80
2021/09/03 05:19:00;;;;;;;29.90;14.32;;;;;;;11.85;100.00;102101.84;4954377;28;20045;-79
2021/09/03 05:21:25;;;;;;;29.33;15.10;;;;;;;11.88;100.00;102103.38;4960369;28;20196;-79
2021/09/03 05:23:51;;;;;;;29.33;14.73;;;;;;;11.92;100.00;102098.75;4969502;28;20043;-79
2021/09/03 05:26:16;;;;;;;32.33;16.13;;;;;;;12.01;100.00;102104.09;4968138;28;20034;-79
2021/09/03 05:28:42;;;;;;;23.63;14.02;;;;;;;12.04;100.00;102088.09;4962616;28;20386;-79
2021/09/03 05:31:07;;;;;;;35.15;16.00;;;;;;;12.11;100.00;102090.22;4957591;28;20037;-79
2021/09/03 05:33:33;;;;;;;34.97;15.30;;;;;;;12.20;100.00;102084.22;4974241;28;20038;-78
2021/09/03 05:35:58;;;;;;;32.55;15.13;;;;;;;12.29;100.00;102090.53;4991243;28;20034;-79
2021/09/03 05:38:24;;;;;;;34.55;15.55;;;;;;;12.31;100.00;102084.19;4973327;28;20038;-79
2021/09/03 05:40:49;;;;;;;41.80;17.13;;;;;;;12.38;100.00;102093.25;4965400;28;20672;-79
2021/09/03 05:43:20;;;;;;;39.10;16.85;;;;;;;12.50;100.00;102090.56;4942057;28;20323;-80
2021/09/03 05:45:45;;;;;;;34.33;15.57;;;;;;;12.57;100.00;102097.84;4990315;28;20475;-80
2021/09/03 05:48:11;;;;;;;28.58;14.18;;;;;;;12.64;100.00;102096.38;4970977;28;20073;-80
2021/09/03 05:50:36;;;;;;;29.35;15.02;;;;;;;12.68;100.00;102106.63;4957425;28;20030;-80
2021/09/03 05:53:02;;;;;;;28.55;14.13;;;;;;;12.71;100.00;102096.69;4955492;28;20035;-78
2021/09/03 05:55:28;;;;;;;35.60;15.60;;;;;;;12.79;100.00;102098.66;4970283;28;20085;-79
2021/09/03 05:57:54;;;;;;;33.17;13.93;;;;;;;12.84;100.00;102101.78;4938857;28;20034;-81
2021/09/03 06:00:20;;;;;;;34.17;15.05;;;;;;;12.96;100.00;102098.13;4973897;28;20559;-79
2021/09/03 06:02:46;;;;;;;31.02;14.52;;;;;;;13.03;100.00;102107.19;4971076;28;20035;-78
2021/09/03 06:05:12;;;;;;;29.00;14.10;;;;;;;13.11;100.00;102096.00;4957572;28;20044;-79
2021/09/03 06:07:37;;;;;;;29.60;14.13;;;;;;;13.12;100.00;102097.66;4972978;28;20034;-80
2021/09/03 06:10:04;;;;;;;29.75;14.20;;;;;;;13.19;100.00;102096.16;4955665;28;20069;-79
2021/09/03 06:12:31;;;;;;;33.42;14.70;;;;;;;13.22;100.00;102073.97;4957287;28;20042;-78
2021/09/03 06:14:56;;;;;;;28.88;13.90;;;;;;;13.36;100.00;102091.28;4974292;28;20030;-79
2021/09/03 06:17:22;;;;;;;32.25;14.63;;;;;;;13.38;100.00;102082.28;4964351;28;20138;-80
2021/09/03 06:20:00;;;;;;;36.55;14.38;;;;;;;13.48;100.00;102081.47;4981481;28;20456;-80
2021/09/03 06:22:25;;;;;;;32.80;15.23;;;;;;;13.58;100.00;102084.97;4955952;28;20100;-79
2021/09/03 06:24:51;;;;;;;39.42;14.50;;;;;;;13.64;100.00;102084.47;4968327;28;20389;-79
2021/09/03 06:27:16;;;;;;;26.85;13.00;;;;;;;13.72;100.00;102089.91;4978878;28;20100;-82
2021/09/03 06:29:45;;;;;;;32.40;14.32;;;;;;;13.80;100.00;102079.50;4957882;28;20161;-79
2021/09/03 06:32:15;;;;;;;31.17;14.43;;;;;;;13.89;100.00;102083.13;4955725;28;20073;-79
2021/09/03 06:34:45;;;;;;;36.58;13.20;;;;;;;14.06;100.00;102078.19;4972553;28;20069;-80
2021/09/03 06:37:10;;;;;;;29.15;12.40;;;;;;;14.04;100.00;102077.47;4953989;28;20506;-79
2021/09/03 06:39:37;;;;;;;26.85;13.00;;;;;;;14.08;100.00;102076.22;4975566;28;20034;-80
2021/09/03 06:42:04;;;;;;;30.70;12.73;;;;;;;14.13;100.00;102066.13;4988608;28;20500;-80
2021/09/03 06:44:30;;;;;;;27.77;11.55;;;;;;;14.21;100.00;102077.63;4957595;28;20080;-80
2021/09/03 06:46:55;;;;;;;36.08;13.30;;;;;;;14.32;100.00;102066.09;4973359;28;20121;-80
2021/09/03 06:49:21;;;;;;;28.60;12.07;;;;;;;14.33;100.00;102072.22;4940372;28;20035;-78
2021/09/03 06:51:47;;;;;;;32.65;11.80;;;;;;;14.38;100.00;102070.00;4979277;28;20038;-76
2021/09/03 06:54:12;;;;;;;28.77;12.07;;;;;;;14.51;100.00;102073.19;4987467;28;20034;-79
2021/09/03 06:56:38;;;;;;;27.80;11.73;;;;;;;14.44;100.00;102058.88;4951246;28;20039;-79
2021/09/03 06:59:03;;;;;;;27.42;10.70;;;;;;;14.44;100.00;102060.69;4938532;28;20039;-79
2021/09/03 07:01:29;;;;;;;26.95;10.35;;;;;;;14.56;100.00;102068.34;4986918;28;20177;-79
2021/09/03 07:03:55;;;;;;;28.52;10.77;;;;;;;14.54;100.00;102061.50;4957019;28;20030;-79
2021/09/03 07:06:20;;;;;;;30.08;10.50;;;;;;;14.55;100.00;102073.75;4973344;28;20038;-78
2021/09/03 07:08:46;;;;;;;28.48;11.20;;;;;;;14.57;100.00;102071.81;4972303;28;20038;-80
2021/09/03 07:11:11;;;;;;;25.10;10.15;;;;;;;14.46;100.00;102074.59;4963466;28;20046;-79
2021/09/03 07:13:37;;;;;;;23.75;9.50;;;;;;;14.58;100.00;102074.34;4948033;28;20469;-79
2021/09/03 07:16:03;;;;;;;31.33;10.77;;;;;;;14.56;100.00;102070.13;4965728;28;20045;-80
2021/09/03 07:18:28;;;;;;;26.25;10.10;;;;;;;14.56;100.00;102062.19;4960798;28;20026;-80
2021/09/03 07:20:54;;;;;;;30.38;10.60;;;;;;;14.70;100.00;102072.38;4959817;28;20125;-79
2021/09/03 07:23:19;;;;;;;26.20;10.57;;;;;;;14.72;100.00;102064.31;4970665;28;20408;-79
2021/09/03 07:25:46;;;;;;;30.38;11.05;;;;;;;14.71;100.00;102060.84;4979940;28;20507;-79
2021/09/03 07:28:12;;;;;;;25.00;10.27;;;;;;;14.85;100.00;102070.13;4960009;28;20129;-79
2021/09/03 07:30:37;;;;;;;30.25;10.45;;;;;;;14.92;100.00;102057.19;4961475;28;20026;-80
2021/09/03 07:33:03;;;;;;;26.08;10.95;;;;;;;14.97;100.00;102066.34;4976247;28;20038;-79
2021/09/03 07:35:28;;;;;;;26.42;11.20;;;;;;;15.01;100.00;102058.13;4936643;28;20042;-80
2021/09/03 07:37:54;;;;;;;29.17;11.10;;;;;;;15.07;99.53;102058.41;4976429;28;20096;-79
2021/09/03 07:40:19;;;;;;;26.38;9.98;;;;;;;15.17;99.58;102061.81;4980976;28;20038;-80
2021/09/03 07:42:45;;;;;;;25.63;9.85;;;;;;;15.23;99.78;102064.88;4972954;28;20038;-79
2021/09/03 07:45:11;;;;;;;28.60;10.50;;;;;;;15.29;100.00;102062.47;4976735;28;20069;-80
2021/09/03 07:47:36;;;;;;;22.48;10.55;;;;;;;15.38;99.21;102074.81;4973834;28;20026;-81
2021/09/03 07:50:03;;;;;;;24.83;10.50;;;;;;;15.37;97.79;102067.06;4960733;28;20078;-80
2021/09/03 07:52:28;;;;;;;23.40;10.23;;;;;;;15.48;96.45;102071.28;4959694;28;20034;-80
2021/09/03 07:54:54;;;;;;;25.38;11.10;;;;;;;15.51;97.15;102057.78;4954849;28;20554;-80
2021/09/03 07:57:19;;;;;;;25.60;10.63;;;;;;;15.45;95.15;102071.59;4986187;28;20038;-81
2021/09/03 07:59:44;;;;;;;24.40;10.13;;;;;;;15.51;97.07;102063.09;4945247;28;20422;-82
2021/09/03 08:02:10;;;;;;;22.02;10.43;;;;;;;15.66;94.69;102079.28;4963664;28;20045;-82
2021/09/03 08:04:35;;;;;;;22.58;10.02;;;;;;;15.83;96.39;102073.22;4959824;28;20121;-83
2021/09/03 08:07:01;;;;;;;24.73;10.70;;;;;;;16.08;95.16;102070.84;4976412;28;20049;-81
2021/09/03 08:09:27;;;;;;;23.50;9.90;;;;;;;16.23;93.64;102056.09;4978948;28;20026;-81
2021/09/03 08:11:52;;;;;;;25.40;10.40;;;;;;;16.27;94.75;102061.91;4984426;28;20042;-80
2021/09/03 08:14:18;;;;;;;22.75;10.57;;;;;;;16.30;94.14;102054.50;4976658;28;20034;-82
2021/09/03 08:16:44;;;;;;;24.63;11.48;;;;;;;16.11;89.73;102052.03;4974119;28;20034;-81
2021/09/03 08:19:09;;;;;;;23.63;10.25;;;;;;;16.17;93.10;102062.00;4960344;28;20535;-82
2021/09/03 08:21:35;;;;;;;21.38;9.93;;;;;;;16.27;92.81;102065.38;4958444;28;20508;-81
2021/09/03 08:24:01;;;;;;;27.38;11.35;;;;;;;16.52;92.85;102062.97;4976232;28;20393;-83
2021/09/03 08:26:26;;;;;;;28.30;12.32;;;;;;;16.67;91.46;102063.22;4964645;28;20045;-82
2021/09/03 08:28:52;;;;;;;28.83;13.13;;;;;;;16.59;90.89;102063.19;4941955;28;20047;-81
2021/09/03 08:31:18;;;;;;;26.27;12.73;;;;;;;16.41;90.84;102064.03;4963629;28;20030;-81
2021/09/03 08:33:44;;;;;;;21.23;12.95;;;;;;;16.30;91.63;102058.97;4958874;28;20039;-82
2021/09/03 08:36:10;;;;;;;21.67;11.65;;;;;;;16.24;90.55;102064.88;4972191;28;20381;-79
2021/09/03 08:38:35;;;;;;;25.60;11.07;;;;;;;16.29;91.33;102052.84;4971805;28;20030;-79
2021/09/03 08:41:01;;;;;;;23.98;11.32;;;;;;;16.42;91.17;102068.34;4968884;28;20053;-82
2021/09/03 08:43:27;;;;;;;23.23;9.88;;;;;;;16.45;92.29;102065.38;4994645;28;20065;-80
2021/09/03 08:45:53;;;;;;;19.85;9.90;;;;;;;16.76;89.31;102057.00;4959893;28;20038;-81
2021/09/03 08:48:21;;;;;;;25.10;10.25;;;;;;;16.73;87.25;102049.38;4967129;28;20413;-82
2021/09/03 08:50:48;;;;;;;21.58;10.63;;;;;;;16.69;86.23;102063.94;4959043;28;20034;-80
2021/09/03 08:53:16;;;;;;;20.35;10.40;;;;;;;16.96;87.66;102062.16;4968954;28;20118;-80
2021/09/03 08:55:47;;;;;;;20.80;10.18;;;;;;;17.00;88.93;102066.13;4966475;28;20042;-82
2021/09/03 08:58:13;;;;;;;24.23;10.38;;;;;;;17.13;86.71;102069.19;4965287;28;20062;-81
2021/09/03 09:00:39;;;;;;;20.80;10.55;;;;;;;17.12;83.75;102055.13;4957937;28;20041;-79
2021/09/03 09:03:13;;;;;;;18.05;10.98;;;;;;;17.28;85.62;102062.31;4942659;28;20038;-82
2021/09/03 09:05:51;;;;;;;26.10;12.32;;;;;;;17.41;84.76;102064.53;4992947;28;20045;-81
2021/09/03 09:08:19;;;;;;;20.88;13.23;;;;;;;17.21;83.74;102063.09;4975945;28;20066;-81
2021/09/03 09:10:55;;;;;;;26.90;12.57;;;;;;;17.12;83.58;102056.91;4975595;28;20045;-81
2021/09/03 09:13:27;;;;;;;23.65;13.43;;;;;;;17.03;86.30;102052.59;4986803;28;20027;-81
2021/09/03 09:16:00;;;;;;;23.35;11.90;;;;;;;16.98;87.20;102053.03;4993101;28;20404;-81
2021/09/03 09:18:50;;;;;;;19.08;11.32;;;;;;;17.03;87.68;102063.19;4942176;28;20038;-81
2021/09/03 09:21:26;;;;;;;24.17;10.88;;;;;;;17.32;84.17;102052.22;4988149;28;20034;-82
2021/09/03 09:24:02;;;;;;;23.60;11.23;;;;;;;17.47;83.70;102047.97;4989109;28;20065;-82
2021/09/03 09:26:53;;;;;;;22.52;10.90;;;;;;;17.54;83.19;102055.28;4966899;28;20064;-82
2021/09/03 09:29:24;;;;;;;22.52;9.70;;;;;;;17.69;88.47;102053.69;4960218;28;20117;-81
2021/09/03 09:31:55;;;;;;;20.83;9.43;;;;;;;17.81;82.60;102057.69;4956798;28;20042;-80
2021/09/03 09:34:29;;;;;;;17.27;9.55;;;;;;;17.95;81.72;102044.81;4988777;28;20038;-83
2021/09/03 09:36:56;;;;;;;19.63;9.20;;;;;;;18.08;82.16;102047.81;4963625;28;20038;-80
2021/09/03 09:39:23;;;;;;;23.95;10.68;;;;;;;18.31;81.13;102049.81;4955850;28;20030;-81
2021/09/03 09:42:01;;;;;;;20.95;10.20;;;;;;;18.37;83.39;102055.31;4992657;28;20034;-79
2021/09/03 09:44:31;;;;;;;24.35;11.00;;;;;;;18.33;80.37;102046.00;4967944;28;20462;-81
2021/09/03 09:47:04;;;;;;;22.58;10.48;;;;;;;18.16;81.18;102045.19;4976581;28;20036;-82
2021/09/03 09:49:30;;;;;;;19.67;9.48;;;;;;;18.35;84.75;102052.00;4959710;28;20513;-79
2021/09/03 09:51:57;;;;;;;21.52;10.40;;;;;;;18.33;83.67;102050.47;4991964;28;20038;-79
2021/09/03 09:54:24;;;;;;;24.05;9.65;;;;;;;18.24;79.53;102045.16;4988220;28;20116;-79
2021/09/03 09:56:52;;;;;;;23.20;9.10;;;;;;;18.28;80.85;102038.53;4958539;28;20038;-80
2021/09/03 09:59:19;;;;;;;18.25;8.82;;;;;;;18.47;82.10;102040.00;4980789;28;20069;-83
2021/09/03 10:01:47;;;;;;;23.67;8.48;;;;;;;18.66;78.94;102045.97;4967274;28;20042;-79
2021/09/03 10:04:15;;;;;;;24.27;7.72;;;;;;;18.70;78.93;102030.53;4969571;28;20031;-81
2021/09/03 10:06:43;;;;;;;14.55;6.82;;;;;;;18.81;77.55;102039.00;4924043;28;20046;-81
2021/09/03 10:09:12;;;;;;;14.45;6.90;;;;;;;18.92;79.88;102035.16;4968694;28;20230;-80
2021/09/03 10:11:40;;;;;;;19.63;7.82;;;;;;;19.02;78.51;102037.63;4974922;28;20034;-79
2021/09/03 10:14:07;;;;;;;19.55;7.90;;;;;;;19.12;78.00;102035.63;4953687;28;20740;-82
2021/09/03 10:16:33;;;;;;;20.33;7.30;;;;;;;19.17;80.37;102029.75;4969840;28;20508;-79
2021/09/03 10:19:02;;;;;;;17.30;7.43;;;;;;;19.26;79.92;102032.22;4973269;28;20042;-80
2021/09/03 10:21:29;;;;;;;19.08;7.30;;;;;;;19.40;78.65;102029.81;4969697;28;20076;-80
2021/09/03 10:24:00;;;;;;;13.88;6.38;;;;;;;19.45;77.44;102040.78;4973391;28;20102;-79
2021/09/03 10:26:29;;;;;;;20.02;7.45;;;;;;;19.61;74.79;102040.72;4960021;28;20039;-81
2021/09/03 10:29:30;;;;;;;20.73;6.57;;;;;;;19.83;75.64;102036.47;4930095;28;20456;-83
2021/09/03 10:32:07;;;;;;;18.75;7.07;;;;;;;19.87;76.37;102036.09;4956691;28;20041;-80
2021/09/03 10:34:49;;;;;;;14.07;6.47;;;;;;;20.06;75.60;102029.47;4973780;28;20034;-82
2021/09/03 10:37:15;;;;;;;23.83;7.75;;;;;;;20.09;74.19;102018.47;4954974;28;20042;-82
2021/09/03 10:40:06;;;;;;;18.77;6.90;;;;;;;20.07;74.45;102023.16;4955804;28;20042;-79
2021/09/03 10:42:35;;;;;;;25.08;7.68;;;;;;;20.21;75.18;102017.03;4950937;28;20034;-82
2021/09/03 10:45:02;;;;;;;21.27;7.20;;;;;;;20.33;75.59;102012.94;4942751;28;20137;-81
2021/09/03 10:47:32;;;;;;;21.98;6.90;;;;;;;20.21;76.73;102009.88;4971433;28;20121;-80
2021/09/03 10:49:58;;;;;;;16.83;6.50;;;;;;;19.99;72.48;102000.06;4971641;28;20060;-82
2021/09/03 10:52:24;;;;;;;16.25;5.95;;;;;;;20.13;73.44;101993.94;4975455;28;20049;-81
2021/09/03 10:54:49;;;;;;;22.80;7.50;;;;;;;20.21;76.23;102007.22;4987932;28;20501;-82
2021/09/03 10:57:16;;;;;;;23.13;7.53;;;;;;;20.26;70.01;102003.19;4959048;28;20080;-83
2021/09/03 11:00:17;;;;;;;19.33;7.75;;;;;;;20.18;70.39;101998.75;4967776;28;20037;-83
2021/09/03 11:02:42;;;;;;;25.00;7.40;;;;;;;20.21;73.19;102004.53;4991056;28;20034;-83
2021/09/03 11:05:13;;;;;;;17.90;6.85;;;;;;;20.29;73.89;102002.81;4962434;28;20041;-82